Time;durP1;ratioP1;P1;durP2;ratioP2;P2;SDS_P1;SDS_P2;PMS_P1;PMS_P2;Temp;Humidity;BMP_temperature;BMP_pressure;BME280_temperature;BME280_humidity;BME280_pressure;Samples;Min_cycle;Max_cycle;Signal;HPM_P1;HPM_P2
2022/08/31 00:05:05;;;;;;;5.13;1.83;;;16.50;99.90;;;;;;5074332;28;19921;-52
2022/08/31 00:07:33;;;;;;;5.55;1.52;;;16.50;99.90;;;;;;5066967;28;20076;-51
2022/08/31 00:10:02;;;;;;;7.10;1.83;;;16.40;99.90;;;;;;5055245;28;20460;-47
2022/08/31 00:12:29;;;;;;;4.72;1.40;;;16.40;99.90;;;;;;5057005;28;20208;-49
2022/08/31 00:14:56;;;;;;;8.43;2.22;;;16.40;99.90;;;;;;5056391;28;20036;-49
2022/08/31 00:17:23;;;;;;;4.90;1.75;;;16.30;99.90;;;;;;5056182;28;20431;-48
2022/08/31 00:19:49;;;;;;;5.57;1.52;;;16.30;99.90;;;;;;5056943;28;20346;-51
2022/08/31 00:22:16;;;;;;;5.43;1.52;;;16.30;99.90;;;;;;5069379;28;20533;-49
2022/08/31 00:24:43;;;;;;;4.53;1.55;;;16.30;99.90;;;;;;5076887;28;20041;-49
2022/08/31 00:27:09;;;;;;;8.77;1.77;;;16.30;99.90;;;;;;5076656;28;20045;-52
2022/08/31 00:29:36;;;;;;;8.45;1.85;;;16.20;99.90;;;;;;5075140;28;20072;-49
2022/08/31 00:32:03;;;;;;;5.70;1.77;;;16.20;99.90;;;;;;5075443;28;20040;-48
2022/08/31 00:34:30;;;;;;;7.40;1.90;;;16.20;99.90;;;;;;5076268;28;20036;-49
2022/08/31 00:36:58;;;;;;;7.10;1.80;;;16.20;99.90;;;;;;5070600;28;20148;-50
2022/08/31 00:39:25;;;;;;;9.10;1.83;;;16.20;99.90;;;;;;5055227;28;20107;-50
2022/08/31 00:41:52;;;;;;;6.75;1.90;;;16.20;99.90;;;;;;5055863;28;20033;-47
2022/08/31 00:44:20;;;;;;;6.70;1.90;;;16.10;99.90;;;;;;5056132;28;20039;-51
2022/08/31 00:46:46;;;;;;;8.60;1.98;;;16.10;99.90;;;;;;5054167;28;20095;-49
2022/08/31 00:49:13;;;;;;;7.18;1.75;;;16.10;99.90;;;;;;5055180;28;20562;-48
2022/08/31 00:51:40;;;;;;;6.85;1.90;;;16.10;99.90;;;;;;5063348;28;20037;-51
2022/08/31 00:54:07;;;;;;;6.60;1.90;;;16.10;99.90;;;;;;5076385;28;20542;-48
2022/08/31 00:56:33;;;;;;;4.78;1.73;;;16.10;99.90;;;;;;5074081;28;20041;-54
2022/08/31 00:59:00;;;;;;;7.95;2.00;;;16.00;99.90;;;;;;5072299;28;20045;-49
2022/08/31 01:01:29;;;;;;;6.35;1.92;;;16.00;99.90;;;;;;5074827;28;20033;-50
2022/08/31 01:03:56;;;;;;;5.75;1.70;;;16.00;99.90;;;;;;5056229;28;20065;-48
2022/08/31 01:06:23;;;;;;;5.25;1.98;;;16.00;99.90;;;;;;5055429;28;20057;-48
2022/08/31 01:08:50;;;;;;;6.45;1.75;;;15.90;99.90;;;;;;5054919;28;20052;-47
2022/08/31 01:11:16;;;;;;;9.55;2.13;;;15.90;99.90;;;;;;5055240;28;20052;-49
2022/08/31 01:13:43;;;;;;;8.45;1.80;;;15.90;99.90;;;;;;5038016;28;20041;-52
2022/08/31 01:16:10;;;;;;;4.20;1.73;;;15.80;99.90;;;;;;5054462;28;20037;-50
2022/08/31 01:18:37;;;;;;;7.93;2.03;;;15.80;99.90;;;;;;5055587;28;20044;-50
2022/08/31 01:21:04;;;;;;;6.68;1.73;;;15.80;99.90;;;;;;5054129;28;20041;-50
2022/08/31 01:23:31;;;;;;;6.72;1.67;;;15.80;99.90;;;;;;5055233;28;20043;-50
2022/08/31 01:25:57;;;;;;;6.10;1.60;;;15.80;99.90;;;;;;5055245;28;20045;-47
2022/08/31 01:28:24;;;;;;;7.00;1.77;;;15.70;99.90;;;;;;5055174;28;20045;-48
2022/08/31 01:30:51;;;;;;;5.30;1.70;;;15.70;99.90;;;;;;5054129;28;20079;-47
2022/08/31 01:33:17;;;;;;;8.45;2.30;;;15.70;99.90;;;;;;5054731;28;20395;-53
2022/08/31 01:35:45;;;;;;;7.32;1.90;;;15.60;99.90;;;;;;5053729;28;20045;-53
2022/08/31 01:38:12;;;;;;;5.82;1.60;;;15.60;99.90;;;;;;5053801;28;20048;-47
2022/08/31 01:40:38;;;;;;;8.25;1.88;;;15.60;99.90;;;;;;5053809;28;20398;-50
2022/08/31 01:43:05;;;;;;;5.20;1.73;;;15.60;99.90;;;;;;5053552;28;20045;-47
2022/08/31 01:45:33;;;;;;;6.53;1.73;;;15.50;99.90;;;;;;5053296;28;20041;-51
2022/08/31 01:48:00;;;;;;;5.72;2.10;;;15.50;99.90;;;;;;5073520;28;20044;-49
2022/08/31 01:50:27;;;;;;;4.03;1.42;;;15.50;99.90;;;;;;5073717;28;20102;-48
2022/08/31 01:52:54;;;;;;;5.95;1.50;;;15.50;99.90;;;;;;5072010;28;20123;-46
2022/08/31 01:55:21;;;;;;;6.13;1.95;;;15.40;99.90;;;;;;5071541;28;20040;-53
2022/08/31 01:57:48;;;;;;;6.43;1.75;;;15.40;99.90;;;;;;5074687;28;20048;-47
2022/08/31 02:00:17;;;;;;;5.40;1.63;;;15.40;99.90;;;;;;5074669;28;20372;-49
2022/08/31 02:02:45;;;;;;;5.53;1.90;;;15.40;99.90;;;;;;5060018;28;20041;-48
2022/08/31 02:05:13;;;;;;;6.43;1.90;;;15.30;99.90;;;;;;5052948;28;20124;-47
2022/08/31 02:07:42;;;;;;;4.78;1.63;;;15.30;99.90;;;;;;5053442;28;20067;-47
2022/08/31 02:10:09;;;;;;;5.82;1.88;;;15.30;99.90;;;;;;5053536;28;20557;-47
2022/08/31 02:12:36;;;;;;;6.30;1.60;;;15.30;99.90;;;;;;5052840;28;20082;-50
2022/08/31 02:15:06;;;;;;;6.88;2.00;;;15.20;99.90;;;;;;5052551;28;20052;-50
2022/08/31 02:17:33;;;;;;;5.05;1.50;;;15.20;99.90;;;;;;5065661;28;20045;-48
2022/08/31 02:20:02;;;;;;;5.35;1.60;;;15.20;99.90;;;;;;5052999;28;20041;-47
2022/08/31 02:22:29;;;;;;;4.30;1.50;;;15.20;99.90;;;;;;5054269;28;20052;-51
2022/08/31 02:24:56;;;;;;;6.28;1.83;;;15.10;99.90;;;;;;5054026;28;20048;-50
2022/08/31 02:27:24;;;;;;;6.68;2.00;;;15.10;99.90;;;;;;5054611;28;20045;-48
2022/08/31 02:29:51;;;;;;;6.40;1.90;;;15.10;99.90;;;;;;5053133;28;20045;-53
2022/08/31 02:32:19;;;;;;;5.82;1.95;;;15.10;99.90;;;;;;5053532;28;20044;-48
2022/08/31 02:34:46;;;;;;;5.18;1.85;;;15.10;99.90;;;;;;5052790;28;20041;-49
2022/08/31 02:37:13;;;;;;;6.13;1.55;;;15.00;99.90;;;;;;5052760;28;20045;-47
2022/08/31 02:39:43;;;;;;;8.15;2.05;;;15.00;99.90;;;;;;5053010;28;20563;-50
2022/08/31 02:42:10;;;;;;;11.30;2.00;;;15.00;99.90;;;;;;5052525;28;20037;-48
2022/08/31 02:44:38;;;;;;;7.13;1.80;;;15.00;99.90;;;;;;5062771;28;20072;-48
2022/08/31 02:47:05;;;;;;;7.40;2.00;;;15.00;99.90;;;;;;5057601;28;20071;-49
2022/08/31 02:49:42;;;;;;;4.05;1.85;;;14.90;99.90;;;;;;5053119;28;20048;-49
2022/08/31 02:52:10;;;;;;;9.20;1.70;;;14.90;99.90;;;;;;5053029;28;20409;-49
2022/08/31 02:54:36;;;;;;;5.93;1.90;;;14.90;99.90;;;;;;5052268;28;20507;-52
2022/08/31 02:57:04;;;;;;;6.82;1.63;;;14.90;99.90;;;;;;5052788;28;20044;-49
2022/08/31 02:59:31;;;;;;;6.32;1.80;;;14.90;99.90;;;;;;5052601;28;20049;-48
2022/08/31 03:01:58;;;;;;;7.95;2.00;;;14.90;99.90;;;;;;5067698;28;20098;-51
2022/08/31 03:04:25;;;;;;;5.78;1.98;;;14.90;99.90;;;;;;5072459;28;20040;-52
2022/08/31 03:06:52;;;;;;;9.85;2.05;;;14.80;99.90;;;;;;5052294;28;20064;-51
2022/08/31 03:09:19;;;;;;;7.78;1.98;;;14.80;99.90;;;;;;5052893;28;20106;-48
2022/08/31 03:11:46;;;;;;;5.55;1.92;;;14.80;99.90;;;;;;5053516;28;20492;-48
2022/08/31 03:14:12;;;;;;;7.45;1.73;;;14.80;99.90;;;;;;5052303;28;20045;-51
2022/08/31 03:16:39;;;;;;;7.88;1.73;;;14.80;99.90;;;;;;5062629;28;20547;-50
2022/08/31 03:19:06;;;;;;;5.05;1.80;;;14.80;99.90;;;;;;5069788;28;20438;-50
2022/08/31 03:21:34;;;;;;;7.80;1.60;;;14.70;99.90;;;;;;5056061;28;20120;-52
2022/08/31 03:24:01;;;;;;;5.60;1.85;;;14.70;99.90;;;;;;5052126;28;20047;-47
2022/08/31 03:26:28;;;;;;;7.03;2.00;;;14.80;99.90;;;;;;5052308;28;20049;-49
2022/08/31 03:28:55;;;;;;;7.28;2.10;;;14.70;99.90;;;;;;5051713;28;20049;-48
2022/08/31 03:31:40;;;;;;;4.00;1.63;;;14.70;99.90;;;;;;5053353;28;20056;-50
2022/08/31 03:34:08;;;;;;;6.63;2.00;;;14.70;99.90;;;;;;5052961;28;20499;-50
2022/08/31 03:36:34;;;;;;;7.43;1.88;;;14.70;99.90;;;;;;5051983;28;20045;-47
2022/08/31 03:39:01;;;;;;;6.57;1.70;;;14.70;99.90;;;;;;5053189;28;20407;-51
2022/08/31 03:41:28;;;;;;;6.80;1.90;;;14.70;99.90;;;;;;5053097;28;20033;-51
2022/08/31 03:43:56;;;;;;;9.05;2.03;;;14.70;99.90;;;;;;5054012;28;20037;-51
2022/08/31 03:46:23;;;;;;;9.10;1.95;;;14.70;99.90;;;;;;5063034;28;20135;-50
2022/08/31 03:48:50;;;;;;;6.40;1.67;;;14.70;99.90;;;;;;5052013;28;20524;-48
2022/08/31 03:51:18;;;;;;;6.05;1.98;;;14.70;99.90;;;;;;5052311;28;20088;-48
2022/08/31 03:53:46;;;;;;;7.32;1.90;;;14.70;99.90;;;;;;5051643;28;20056;-49
2022/08/31 03:56:16;;;;;;;9.35;1.98;;;14.70;99.90;;;;;;5052219;28;20496;-49
2022/08/31 03:58:44;;;;;;;5.47;1.48;;;14.70;99.90;;;;;;5051629;28;20041;-51
2022/08/31 04:01:26;;;;;;;5.57;2.05;;;14.70;99.90;;;;;;5052453;28;20040;-52
2022/08/31 04:04:12;;;;;;;9.32;1.85;;;14.70;99.90;;;;;;5071899;28;20051;-50
2022/08/31 04:06:47;;;;;;;8.38;1.77;;;14.70;99.90;;;;;;5055676;28;20060;-48
2022/08/31 04:09:52;;;;;;;9.38;2.08;;;14.70;99.90;;;;;;5051310;28;20072;-48
2022/08/31 04:12:37;;;;;;;9.30;2.05;;;14.70;99.90;;;;;;5038248;28;20538;-50
2022/08/31 04:15:28;;;;;;;9.45;2.00;;;14.80;99.90;;;;;;5046506;28;20044;-48
2022/08/31 04:18:14;;;;;;;7.30;1.80;;;14.80;99.90;;;;;;5052748;28;20048;-49
2022/08/31 04:20:44;;;;;;;5.03;1.77;;;14.80;99.90;;;;;;5052071;28;20392;-49
2022/08/31 04:23:11;;;;;;;5.50;1.88;;;14.80;99.90;;;;;;5051624;28;20037;-46
2022/08/31 04:25:58;;;;;;;8.00;1.90;;;14.90;99.90;;;;;;5052465;28;20140;-48
2022/08/31 04:28:25;;;;;;;7.97;1.63;;;14.90;99.90;;;;;;5060325;28;20541;-49
2022/08/31 04:30:51;;;;;;;6.65;1.65;;;15.00;99.90;;;;;;5072454;28;20041;-48
2022/08/31 04:33:19;;;;;;;3.95;1.60;;;15.00;99.90;;;;;;5056205;28;20065;-50
2022/08/31 04:35:46;;;;;;;4.82;1.80;;;15.00;99.90;;;;;;5056867;28;20376;-46
2022/08/31 04:38:13;;;;;;;8.90;1.70;;;15.00;99.90;;;;;;5055150;28;20061;-50
2022/08/31 04:40:41;;;;;;;7.30;2.47;;;14.90;99.90;;;;;;5054779;28;20067;-47
2022/08/31 04:43:08;;;;;;;5.97;2.17;;;14.90;99.90;;;;;;5055506;28;20067;-47
2022/08/31 04:45:35;;;;;;;6.57;2.05;;;14.90;99.90;;;;;;5054276;28;20118;-50
2022/08/31 04:48:02;;;;;;;6.85;1.75;;;14.90;99.90;;;;;;5055422;28;20069;-51
2022/08/31 04:50:30;;;;;;;7.78;1.75;;;14.90;99.90;;;;;;5054127;28;20045;-49
2022/08/31 04:53:07;;;;;;;5.90;1.77;;;14.80;99.90;;;;;;5055878;28;20033;-50
2022/08/31 04:55:34;;;;;;;7.07;1.70;;;14.80;99.90;;;;;;5055045;28;20044;-48
2022/08/31 04:58:01;;;;;;;9.27;2.00;;;14.80;99.90;;;;;;5054890;28;20136;-51
2022/08/31 05:00:28;;;;;;;5.72;1.73;;;14.80;99.90;;;;;;5055902;28;20044;-50
2022/08/31 05:03:18;;;;;;;7.50;2.03;;;14.80;99.90;;;;;;5061408;28;20444;-45
2022/08/31 05:05:51;;;;;;;11.85;2.28;;;14.80;99.90;;;;;;5054108;28;20051;-46
2022/08/31 05:08:18;;;;;;;6.13;2.00;;;14.80;99.90;;;;;;5055368;28;20048;-48
2022/08/31 05:10:45;;;;;;;6.68;2.30;;;14.80;99.90;;;;;;5054569;28;20399;-48
2022/08/31 05:13:12;;;;;;;5.53;1.70;;;14.80;99.90;;;;;;5054456;28;20041;-49
2022/08/31 05:15:39;;;;;;;5.10;1.70;;;14.80;99.90;;;;;;5055530;28;20048;-50
2022/08/31 05:18:06;;;;;;;6.55;2.00;;;14.80;99.90;;;;;;5054009;28;20049;-47
2022/08/31 05:20:36;;;;;;;9.02;1.77;;;14.80;99.90;;;;;;5061046;28;20054;-47
2022/08/31 05:23:03;;;;;;;5.70;1.70;;;14.80;99.90;;;;;;5064239;28;20041;-50
2022/08/31 05:25:29;;;;;;;10.02;2.00;;;14.80;99.90;;;;;;5056144;28;20045;-47
2022/08/31 05:27:56;;;;;;;6.22;1.83;;;14.80;99.90;;;;;;5054896;28;20041;-48
2022/08/31 05:30:23;;;;;;;7.05;1.92;;;14.80;99.90;;;;;;5055174;28;20055;-47
2022/08/31 05:33:03;;;;;;;7.65;1.80;;;14.90;99.90;;;;;;5054352;28;20052;-46
2022/08/31 05:35:30;;;;;;;5.72;1.48;;;14.90;99.90;;;;;;5054329;28;20083;-49
2022/08/31 05:37:57;;;;;;;11.88;2.00;;;14.90;99.90;;;;;;5054256;28;20036;-50
2022/08/31 05:40:24;;;;;;;6.53;1.90;;;14.90;99.90;;;;;;5069931;28;20053;-50
2022/08/31 05:42:50;;;;;;;10.48;2.58;;;14.90;99.90;;;;;;5055041;28;20037;-47
2022/08/31 05:45:18;;;;;;;7.75;2.20;;;15.00;99.90;;;;;;5054763;28;20115;-48
2022/08/31 05:47:46;;;;;;;9.35;1.90;;;15.00;99.90;;;;;;5054940;28;20094;-46
2022/08/31 05:50:13;;;;;;;5.30;2.00;;;14.90;99.90;;;;;;5053411;28;20045;-50
2022/08/31 05:52:41;;;;;;;4.38;1.58;;;15.00;99.90;;;;;;5055977;28;20519;-46
2022/08/31 05:55:08;;;;;;;4.68;1.90;;;15.00;99.90;;;;;;5069185;28;20055;-49
2022/08/31 05:57:35;;;;;;;5.97;1.83;;;15.00;99.90;;;;;;5055621;28;20456;-46
2022/08/31 06:00:02;;;;;;;5.25;2.13;;;15.10;99.90;;;;;;5054646;28;20037;-47
2022/08/31 06:02:38;;;;;;;6.22;1.73;;;15.20;99.90;;;;;;5053543;28;20049;-50
2022/08/31 06:05:07;;;;;;;4.90;1.60;;;15.30;99.90;;;;;;5053113;28;20063;-51
2022/08/31 06:07:34;;;;;;;6.07;1.90;;;15.30;99.90;;;;;;5053742;28;20057;-47
2022/08/31 06:10:04;;;;;;;8.52;1.98;;;15.30;99.90;;;;;;5069826;28;20453;-52
2022/08/31 06:12:33;;;;;;;8.50;1.90;;;15.40;99.90;;;;;;5053055;28;20425;-51
2022/08/31 06:15:03;;;;;;;5.13;1.85;;;15.40;99.90;;;;;;5064739;28;20381;-49
2022/08/31 06:17:31;;;;;;;5.18;2.17;;;15.40;99.90;;;;;;5068479;28;20052;-47
2022/08/31 06:19:58;;;;;;;9.85;2.38;;;15.40;99.90;;;;;;5053281;28;20547;-49
2022/08/31 06:22:25;;;;;;;9.75;2.17;;;15.50;99.90;;;;;;5052880;28;20071;-47
2022/08/31 06:24:53;;;;;;;8.60;2.03;;;15.50;99.90;;;;;;5069736;28;20076;-50
2022/08/31 06:27:20;;;;;;;8.18;2.25;;;15.50;99.90;;;;;;5053478;28;20041;-50
2022/08/31 06:29:49;;;;;;;6.25;1.92;;;15.60;99.90;;;;;;5053151;28;20127;-51
2022/08/31 06:32:16;;;;;;;7.45;2.08;;;15.60;99.90;;;;;;5053913;28;20099;-49
2022/08/31 06:34:56;;;;;;;6.68;2.40;;;15.70;99.90;;;;;;5054269;28;20055;-46
2022/08/31 06:37:53;;;;;;;6.50;2.00;;;15.70;99.90;;;;;;5056163;28;20076;-46
2022/08/31 06:40:41;;;;;;;7.63;1.73;;;15.80;99.90;;;;;;5055952;28;20041;-48
2022/08/31 06:43:37;;;;;;;7.18;1.80;;;15.80;99.90;;;;;;5052722;28;20045;-47
2022/08/31 06:46:17;;;;;;;8.10;1.83;;;15.90;99.90;;;;;;5055162;28;20428;-47
2022/08/31 06:49:00;;;;;;;8.68;2.00;;;16.00;99.90;;;;;;5052451;28;20994;-48
2022/08/31 06:51:27;;;;;;;8.63;2.10;;;16.10;99.90;;;;;;5053738;28;20515;-48
2022/08/31 06:53:55;;;;;;;10.73;1.90;;;16.10;99.90;;;;;;5057570;28;20048;-49
2022/08/31 06:57:01;;;;;;;6.13;2.25;;;16.10;99.90;;;;;;5053384;28;20048;-49
2022/08/31 06:59:46;;;;;;;8.63;2.03;;;16.20;99.90;;;;;;5053305;28;20052;-49
2022/08/31 07:02:39;;;;;;;6.97;1.80;;;16.30;99.90;;;;;;5063280;28;20041;-49
2022/08/31 07:05:07;;;;;;;8.90;1.70;;;16.40;99.90;;;;;;5072756;28;20440;-49
2022/08/31 07:07:39;;;;;;;10.02;2.50;;;16.40;99.90;;;;;;5067497;28;20053;-47
2022/08/31 07:10:09;;;;;;;6.43;1.90;;;16.50;99.90;;;;;;5062686;28;20036;-49
2022/08/31 07:12:36;;;;;;;7.97;2.65;;;16.50;99.90;;;;;;5060358;28;20044;-50
2022/08/31 07:15:03;;;;;;;8.02;2.00;;;16.60;99.90;;;;;;5055976;28;20045;-47
2022/08/31 07:17:30;;;;;;;6.28;2.00;;;16.70;99.90;;;;;;5052272;28;20097;-50
2022/08/31 07:19:59;;;;;;;10.82;2.63;;;16.70;99.90;;;;;;5067982;28;20153;-50
2022/08/31 07:22:26;;;;;;;13.82;2.38;;;16.70;99.90;;;;;;5054200;28;20049;-47
2022/08/31 07:25:04;;;;;;;6.72;2.17;;;16.80;99.90;;;;;;5056394;28;20052;-45
2022/08/31 07:27:33;;;;;;;8.40;1.90;;;16.80;99.90;;;;;;5052839;28;20107;-50
2022/08/31 07:30:00;;;;;;;6.88;1.50;;;16.90;99.90;;;;;;5053726;28;20075;-49
2022/08/31 07:32:31;;;;;;;11.32;2.17;;;16.90;99.90;;;;;;5060640;28;20040;-51
2022/08/31 07:34:59;;;;;;;5.97;1.88;;;16.90;99.90;;;;;;5052193;28;20049;-49
2022/08/31 07:43:03;;;;;;;6.80;1.88;;;17.10;99.90;;;;;;5077194;28;20561;-48
2022/08/31 07:45:32;;;;;;;6.15;2.10;;;17.20;99.90;;;;;;5054560;28;20132;-50
2022/08/31 07:48:03;;;;;;;5.57;1.50;;;17.30;99.90;;;;;;5061154;28;20518;-49
2022/08/31 07:50:57;;;;;;;4.63;1.80;;;17.40;99.90;;;;;;5054405;28;20083;-48
2022/08/31 07:53:41;;;;;;;8.50;1.90;;;17.40;99.90;;;;;;5059296;28;20045;-50
2022/08/31 07:56:30;;;;;;;8.15;2.15;;;17.50;99.90;;;;;;5053663;28;20083;-52
2022/08/31 07:59:09;;;;;;;8.63;2.35;;;17.60;99.90;;;;;;5052926;28;20184;-50
2022/08/31 08:01:40;;;;;;;11.93;2.10;;;17.60;99.90;;;;;;5055556;28;20119;-49
2022/08/31 08:04:07;;;;;;;7.05;1.92;;;17.70;99.90;;;;;;5052013;28;20044;-49
2022/08/31 08:07:16;;;;;;;8.95;1.92;;;17.80;99.90;;;;;;5065075;28;20044;-49
2022/08/31 08:09:55;;;;;;;10.43;2.08;;;17.90;99.90;;;;;;5057321;28;20124;-51
2022/08/31 08:12:54;;;;;;;8.82;2.03;;;18.00;99.90;;;;;;5047823;28;20045;-49
2022/08/31 08:15:36;;;;;;;6.60;1.90;;;18.20;99.90;;;;;;5055694;28;20048;-48
2022/08/31 08:18:33;;;;;;;11.25;2.05;;;18.20;99.90;;;;;;5073482;28;20052;-48
2022/08/31 08:21:01;;;;;;;8.68;1.98;;;18.40;99.90;;;;;;5082572;28;20616;-52
2022/08/31 08:23:28;;;;;;;6.53;1.85;;;18.40;99.60;;;;;;5077396;28;20036;-51
2022/08/31 08:26:14;;;;;;;11.07;2.05;;;18.40;99.60;;;;;;5075025;28;20052;-48
2022/08/31 08:29:06;;;;;;;9.75;2.00;;;18.50;99.50;;;;;;5061755;28;20039;-47
2022/08/31 08:31:37;;;;;;;10.15;2.00;;;18.60;99.40;;;;;;5087282;28;20094;-52
2022/08/31 08:34:04;;;;;;;10.07;2.00;;;18.60;99.20;;;;;;5074617;28;20131;-50
2022/08/31 08:36:34;;;;;;;9.65;2.30;;;18.60;99.20;;;;;;5074429;28;20098;-48
2022/08/31 08:39:01;;;;;;;10.07;2.17;;;18.80;99.20;;;;;;5074326;28;20488;-50
2022/08/31 08:41:28;;;;;;;6.30;2.17;;;18.80;98.90;;;;;;5062170;28;20036;-48
2022/08/31 08:43:57;;;;;;;7.78;2.08;;;18.90;98.60;;;;;;5063914;28;20045;-48
2022/08/31 08:46:26;;;;;;;7.55;1.98;;;19.00;98.60;;;;;;5058787;28;20091;-56
2022/08/31 08:49:01;;;;;;;9.00;2.10;;;19.10;98.50;;;;;;5085754;28;20052;-49
2022/08/31 08:51:29;;;;;;;7.90;2.00;;;19.20;98.30;;;;;;5077921;28;20102;-48
2022/08/31 08:53:59;;;;;;;10.07;2.25;;;19.20;98.20;;;;;;5067345;28;20103;-48
2022/08/31 08:56:32;;;;;;;5.85;2.00;;;19.20;97.90;;;;;;5054239;28;20145;-50
2022/08/31 08:59:02;;;;;;;11.68;1.85;;;19.20;98.00;;;;;;5065107;28;20109;-51
2022/08/31 09:01:36;;;;;;;7.93;2.17;;;19.30;98.00;;;;;;5054105;28;20045;-48
2022/08/31 09:04:04;;;;;;;7.22;1.88;;;19.40;97.90;;;;;;5065157;28;20032;-50
2022/08/31 09:06:52;;;;;;;7.85;2.35;;;19.40;98.10;;;;;;5075250;28;20137;-49
2022/08/31 09:09:23;;;;;;;8.27;1.80;;;19.60;97.70;;;;;;5074312;28;20049;-48
2022/08/31 09:11:56;;;;;;;10.45;1.98;;;19.60;97.50;;;;;;5074209;28;20468;-50
2022/08/31 09:14:23;;;;;;;6.32;1.65;;;19.70;97.30;;;;;;5073984;28;20431;-48
2022/08/31 09:16:50;;;;;;;5.57;1.67;;;19.70;97.10;;;;;;5065110;28;20135;-48
2022/08/31 09:19:17;;;;;;;8.52;1.90;;;19.70;97.00;;;;;;5053851;28;20559;-47
2022/08/31 09:21:44;;;;;;;11.32;2.08;;;19.80;96.90;;;;;;5053888;28;20468;-48
2022/08/31 09:24:11;;;;;;;4.82;1.80;;;19.80;97.00;;;;;;5055684;28;20045;-51
2022/08/31 09:26:53;;;;;;;6.97;2.15;;;20.00;97.00;;;;;;5057574;28;20078;-47
2022/08/31 09:29:31;;;;;;;8.68;1.60;;;20.10;96.40;;;;;;5057342;28;20041;-48
2022/08/31 09:31:58;;;;;;;7.35;2.00;;;20.20;96.20;;;;;;5064855;28;20036;-51
2022/08/31 09:34:31;;;;;;;8.65;1.83;;;20.30;96.10;;;;;;5058875;28;20048;-48
2022/08/31 09:37:00;;;;;;;6.50;1.83;;;20.40;96.10;;;;;;5071962;28;20533;-49
2022/08/31 09:39:27;;;;;;;10.40;2.00;;;20.50;95.70;;;;;;5062268;28;20043;-49
2022/08/31 09:41:59;;;;;;;13.50;2.10;;;20.60;95.60;;;;;;5062208;28;20032;-48
2022/08/31 09:44:30;;;;;;;7.25;1.80;;;20.70;95.50;;;;;;5068249;28;20041;-47
2022/08/31 09:55:12;;;;;;;6.55;2.03;;;20.70;95.60;;;;;;4971027;28;20054;-47
2022/08/31 09:55:16;;;;;;;7.30;1.90;;;20.70;95.20;;;;;;4953710;29;20054;-50
2022/08/31 09:57:43;;;;;;;8.30;1.73;;;20.60;94.80;;;;;;4954931;29;20127;-47
2022/08/31 10:00:12;;;;;;;8.18;1.95;;;20.70;95.10;;;;;;4953664;28;20047;-51
2022/08/31 10:02:39;;;;;;;4.10;1.40;;;20.80;95.00;;;;;;4955050;29;20039;-51
2022/08/31 10:05:06;;;;;;;7.10;1.88;;;20.90;94.40;;;;;;4956697;28;20447;-50
2022/08/31 10:07:33;;;;;;;7.60;1.70;;;21.00;94.70;;;;;;4955709;29;20049;-49
2022/08/31 10:09:59;;;;;;;8.40;2.00;;;21.20;94.50;;;;;;4955282;28;20039;-50
2022/08/31 10:12:27;;;;;;;6.55;1.70;;;21.20;93.90;;;;;;4956024;28;20059;-50
2022/08/31 10:14:54;;;;;;;7.38;1.80;;;21.30;93.50;;;;;;4953832;28;20098;-47
2022/08/31 10:17:24;;;;;;;5.60;1.60;;;21.30;93.50;;;;;;4936507;29;20061;-48
2022/08/31 10:19:55;;;;;;;7.70;1.80;;;21.20;93.50;;;;;;4944773;29;20478;-50
2022/08/31 10:22:24;;;;;;;11.05;2.13;;;21.20;94.00;;;;;;4955082;29;20288;-51
2022/08/31 10:24:51;;;;;;;13.02;2.50;;;21.30;93.90;;;;;;4948474;28;20063;-48
2022/08/31 10:27:17;;;;;;;5.82;1.75;;;21.40;93.90;;;;;;4956251;28;20035;-52
2022/08/31 10:29:44;;;;;;;8.25;1.77;;;21.50;93.60;;;;;;4954929;28;20049;-53
2022/08/31 10:32:11;;;;;;;8.02;1.50;;;21.60;93.50;;;;;;4945661;29;20098;-52
2022/08/31 10:37:23;;;;;;;4.60;1.35;;;21.50;92.60;;;;;;4955478;29;20134;-50
2022/08/31 10:39:50;;;;;;;7.00;1.83;;;21.50;93.00;;;;;;4956405;28;20039;-49
2022/08/31 10:42:17;;;;;;;7.72;1.52;;;21.50;93.00;;;;;;4955867;28;20047;-48
2022/08/31 10:44:51;;;;;;;7.88;1.77;;;21.40;93.20;;;;;;4955103;28;20043;-49
2022/08/31 10:47:18;;;;;;;4.40;1.17;;;21.50;93.10;;;;;;4938675;28;20035;-49
2022/08/31 10:50:01;;;;;;;11.52;1.58;;;21.50;93.10;;;;;;4937151;29;20058;-48
2022/08/31 10:52:31;;;;;;;6.85;1.55;;;21.60;93.20;;;;;;4949312;29;20103;-46
2022/08/31 10:55:04;;;;;;;10.02;2.20;;;21.50;93.10;;;;;;4949617;28;20954;-50
2022/08/31 10:57:31;;;;;;;5.65;1.90;;;21.40;93.20;;;;;;4952089;28;20043;-50
2022/08/31 10:59:57;;;;;;;6.88;1.50;;;21.40;93.00;;;;;;4950816;29;20054;-51
2022/08/31 11:02:24;;;;;;;8.77;2.08;;;21.40;93.00;;;;;;4952597;29;20039;-51
2022/08/31 11:04:51;;;;;;;8.98;2.00;;;21.50;93.00;;;;;;4953153;28;20074;-51
2022/08/31 11:07:19;;;;;;;9.10;1.50;;;21.60;92.80;;;;;;4952984;29;20043;-49
2022/08/31 11:09:45;;;;;;;7.15;1.48;;;21.50;92.80;;;;;;4954758;28;20490;-48
2022/08/31 11:12:14;;;;;;;7.65;1.50;;;21.50;92.60;;;;;;4955947;28;20051;-48
2022/08/31 11:14:43;;;;;;;8.57;1.65;;;21.50;92.70;;;;;;4955344;28;20548;-50
2022/08/31 11:17:10;;;;;;;6.97;1.50;;;21.60;93.00;;;;;;4955649;28;20518;-48
2022/08/31 11:19:37;;;;;;;9.25;1.65;;;21.50;92.90;;;;;;4955694;28;20047;-51
2022/08/31 11:22:04;;;;;;;7.70;1.50;;;21.40;92.60;;;;;;4955968;28;20044;-48
2022/08/31 11:24:31;;;;;;;6.03;1.40;;;21.30;92.60;;;;;;4955557;28;20112;-52
2022/08/31 11:27:02;;;;;;;10.10;1.77;;;21.30;92.70;;;;;;4955448;28;20126;-48
2022/08/31 11:29:29;;;;;;;6.68;1.58;;;21.20;92.40;;;;;;4954188;29;20051;-50
2022/08/31 11:31:56;;;;;;;6.68;1.63;;;21.20;92.80;;;;;;4955647;28;20052;-50
2022/08/31 11:34:24;;;;;;;6.25;1.90;;;21.20;92.70;;;;;;4955392;28;20043;-48
2022/08/31 11:36:51;;;;;;;9.07;1.42;;;21.30;92.60;;;;;;4955788;28;20126;-52
2022/08/31 11:39:21;;;;;;;5.70;1.80;;;21.40;92.50;;;;;;4955861;28;20046;-49
2022/08/31 11:41:49;;;;;;;7.07;1.77;;;21.50;91.90;;;;;;4959058;28;20143;-47
2022/08/31 11:44:17;;;;;;;4.32;1.25;;;21.70;91.60;;;;;;4959361;28;20043;-48
2022/08/31 11:46:44;;;;;;;5.68;1.35;;;21.90;90.70;;;;;;4959345;28;20043;-49
2022/08/31 11:49:14;;;;;;;8.15;1.77;;;21.90;90.10;;;;;;4959781;28;20474;-51
2022/08/31 11:51:40;;;;;;;5.57;1.23;;;22.00;90.20;;;;;;4958873;28;20078;-50
2022/08/31 11:54:08;;;;;;;7.15;1.40;;;22.00;90.80;;;;;;4959090;28;20486;-48
2022/08/31 11:56:35;;;;;;;7.03;1.30;;;22.10;89.90;;;;;;4959247;28;20047;-47
2022/08/31 11:59:01;;;;;;;7.95;1.48;;;22.10;90.30;;;;;;4958984;28;20035;-48
2022/08/31 12:01:29;;;;;;;6.15;1.30;;;22.20;89.60;;;;;;4958191;29;20039;-48
2022/08/31 12:04:02;;;;;;;3.95;1.58;;;22.40;89.20;;;;;;4958846;28;20050;-52
2022/08/31 12:06:36;;;;;;;10.57;1.27;;;22.50;88.10;;;;;;4959281;28;20039;-48
2022/08/31 12:09:02;;;;;;;9.65;1.63;;;22.60;87.90;;;;;;4958659;28;20039;-52
2022/08/31 12:11:29;;;;;;;6.22;1.52;;;22.70;89.00;;;;;;4959345;28;20066;-49
2022/08/31 12:14:00;;;;;;;8.15;1.67;;;22.80;89.40;;;;;;4959012;28;20062;-52
2022/08/31 12:16:28;;;;;;;8.77;1.80;;;22.90;89.40;;;;;;4958685;28;20043;-48
2022/08/31 12:18:57;;;;;;;4.50;1.60;;;23.00;88.50;;;;;;4958359;28;20039;-48
2022/08/31 12:24:11;;;;;;;6.72;1.40;;;23.00;85.80;;;;;;4958537;28;20390;-51
2022/08/31 12:26:44;;;;;;;6.05;1.30;;;22.90;86.70;;;;;;4958307;28;20394;-51
2022/08/31 12:29:11;;;;;;;5.10;1.17;;;22.90;86.90;;;;;;4958434;28;20049;-47
2022/08/31 12:31:37;;;;;;;6.75;1.40;;;22.70;85.70;;;;;;4958417;28;20043;-50
2022/08/31 12:34:04;;;;;;;6.60;1.60;;;22.70;86.90;;;;;;4958157;28;20043;-47
2022/08/31 12:36:31;;;;;;;4.45;1.20;;;22.80;87.30;;;;;;4958729;28;20378;-48
2022/08/31 12:38:58;;;;;;;8.32;1.50;;;22.90;86.20;;;;;;4958686;28;20043;-50
2022/08/31 12:41:24;;;;;;;5.20;1.35;;;23.00;84.00;;;;;;4958774;28;20462;-47
2022/08/31 12:43:51;;;;;;;5.85;1.10;;;23.10;86.00;;;;;;4958085;28;20049;-51
2022/08/31 12:46:18;;;;;;;4.90;1.10;;;23.20;86.00;;;;;;4958394;28;20049;-51
2022/08/31 12:48:45;;;;;;;6.63;1.40;;;23.30;84.60;;;;;;4958113;28;20450;-49
2022/08/31 12:51:12;;;;;;;4.97;1.45;;;23.30;83.90;;;;;;4956683;28;20086;-49
2022/08/31 12:53:38;;;;;;;5.68;1.40;;;23.30;83.70;;;;;;4958513;28;20544;-47
2022/08/31 12:56:05;;;;;;;6.03;1.40;;;23.40;83.40;;;;;;4957703;28;20105;-51
2022/08/31 12:58:32;;;;;;;4.90;1.38;;;23.50;83.30;;;;;;4957707;28;20070;-50
2022/08/31 13:00:59;;;;;;;8.35;1.33;;;23.50;81.90;;;;;;4957872;28;20490;-49
2022/08/31 13:03:27;;;;;;;5.28;1.30;;;23.40;81.70;;;;;;4957789;28;20043;-51
2022/08/31 13:05:54;;;;;;;6.65;1.33;;;23.40;81.00;;;;;;4957724;28;20043;-47
2022/08/31 13:08:21;;;;;;;6.70;1.20;;;23.40;81.80;;;;;;4957673;28;20047;-50
2022/08/31 13:10:48;;;;;;;5.70;1.25;;;23.50;81.20;;;;;;4957960;28;20039;-47
2022/08/31 13:13:15;;;;;;;3.83;1.30;;;23.50;81.40;;;;;;4957489;28;20050;-51
2022/08/31 13:15:41;;;;;;;4.97;1.30;;;23.40;80.90;;;;;;4957733;28;20122;-48
2022/08/31 13:18:08;;;;;;;7.75;1.50;;;23.40;80.70;;;;;;4957620;28;20052;-49
2022/08/31 13:20:39;;;;;;;4.38;0.98;;;23.30;81.00;;;;;;4957370;28;20474;-49